Winter, Wisconsin
Current Conditions -  °F | °C
As of 10:35 PM on Friday 19 Dec 2014 (Local Time) from KRCX Reporting Station
Overcast Overcast  
Wind Chill: 26°   Ceiling: 2100
Heat Index: 26°   Visibility: 10mi
Dew Point: 23°   Wind: 3mph
Humidity: 89%   Direction: 130°SE
Pressure: 30.21"   Gusts: NA
Location:  45.82°N, 91.01°W
Report Text: KRCX 200435Z AUTO 13003KT 10SM OVC021 M04/M05 A3021 RMK AO2 T10361052
Loading
Personal Weather Stations






























Interactive Weather Map New forecast layout! Learn more

10-Day Weather Forecast

Advertisements
Track Severe Weather on mobile